createdAt,value
2018-06-04T00:00:41.565Z,101201.02
2018-06-04T00:03:10.417Z,101194.63
2018-06-04T00:05:39.251Z,101203.59
2018-06-04T00:08:08.431Z,101207.92
2018-06-04T00:10:37.337Z,101209.81
2018-06-04T00:13:06.275Z,101212.89
2018-06-04T00:15:35.131Z,101215.42
2018-06-04T00:18:03.998Z,101210.85
2018-06-04T00:20:32.931Z,101208.11
2018-06-04T00:23:01.740Z,101202.06
2018-06-04T00:25:30.596Z,101203.28
2018-06-04T00:27:59.465Z,101206.69
2018-06-04T00:30:28.333Z,101208.12
2018-06-04T00:32:57.230Z,101201.06
2018-06-04T00:35:26.105Z,101199.64
2018-06-04T00:37:54.959Z,101202.84
2018-06-04T00:40:23.800Z,101188.52
2018-06-04T00:42:52.663Z,101196.09
2018-06-04T00:45:21.526Z,101188.66
2018-06-04T00:47:50.434Z,101187.23
2018-06-04T00:50:19.292Z,101185.51
2018-06-04T00:52:48.153Z,101186.83
2018-06-04T00:55:16.958Z,101177.80
2018-06-04T00:57:45.822Z,101184.66
2018-06-04T01:00:14.705Z,101180.14
2018-06-04T01:02:43.602Z,101182.73
2018-06-04T01:05:12.462Z,101183.38
2018-06-04T01:07:41.431Z,101184.62
2018-06-04T01:10:10.382Z,101178.64
2018-06-04T01:12:39.275Z,101175.77
2018-06-04T01:15:08.149Z,101170.95
2018-06-04T01:17:37.035Z,101169.72
2018-06-04T01:20:05.956Z,101169.52
2018-06-04T01:22:34.815Z,101162.23
2018-06-04T01:25:03.672Z,101155.06
2018-06-04T01:27:32.511Z,101163.55
2018-06-04T01:30:01.392Z,101153.01
2018-06-04T01:32:30.248Z,101155.78
2018-06-04T01:34:59.074Z,101150.98
2018-06-04T01:37:27.920Z,101156.31
2018-06-04T01:39:56.785Z,101150.20
2018-06-04T01:42:25.630Z,101154.16
2018-06-04T01:44:54.501Z,101154.05
2018-06-04T01:47:23.333Z,101149.83
2018-06-04T01:49:52.217Z,101144.11
2018-06-04T01:52:21.113Z,101140.59
2018-06-04T01:54:49.932Z,101142.56
2018-06-04T01:57:18.766Z,101146.58
2018-06-04T01:59:47.619Z,101132.55
2018-06-04T02:02:16.446Z,101134.81
2018-06-04T02:04:45.369Z,101126.06
2018-06-04T02:07:14.235Z,101128.45
2018-06-04T02:09:43.131Z,101128.34
2018-06-04T02:12:12.000Z,101123.18
2018-06-04T02:14:40.890Z,101127.40
2018-06-04T02:17:09.805Z,101126.55
2018-06-04T02:19:38.658Z,101122.97
2018-06-04T02:22:07.528Z,101121.64
2018-06-04T02:24:36.415Z,101119.64
2018-06-04T02:27:05.259Z,101113.27
2018-06-04T02:29:34.138Z,101119.85
2018-06-04T02:32:03.034Z,101124.55
2018-06-04T02:34:31.882Z,101114.00
2018-06-04T02:37:00.723Z,101117.11
2018-06-04T02:39:29.590Z,101118.69
2018-06-04T02:41:58.414Z,101119.06
2018-06-04T02:44:27.253Z,101118.00
2018-06-04T02:46:56.136Z,101118.63
2018-06-04T02:49:25.023Z,101119.22
2018-06-04T02:51:53.956Z,101111.30
2018-06-04T02:54:22.867Z,101108.23
2018-06-04T02:56:51.734Z,101105.82
2018-06-04T02:59:20.558Z,101096.27
2018-06-04T03:01:49.472Z,101101.97
2018-06-04T03:04:18.340Z,101093.72
2018-06-04T03:06:47.190Z,101092.27
2018-06-04T03:09:16.076Z,101092.41
2018-06-04T03:11:44.918Z,101094.20
2018-06-04T03:14:13.779Z,101086.29
2018-06-04T03:16:42.806Z,101083.91
2018-06-04T03:19:11.663Z,101089.23
2018-06-04T03:21:40.526Z,101095.83
2018-06-04T03:24:09.458Z,101090.14
2018-06-04T03:26:38.370Z,101084.86
2018-06-04T03:29:07.197Z,101082.48
2018-06-04T03:31:36.223Z,101087.17
2018-06-04T03:34:05.098Z,101080.95
2018-06-04T03:36:34.014Z,101089.86
2018-06-04T03:39:03.009Z,101083.37
2018-06-04T03:41:31.899Z,101085.53
2018-06-04T03:44:00.765Z,101090.44
2018-06-04T03:46:29.655Z,101077.73
2018-06-04T03:48:58.909Z,101079.67
2018-06-04T03:51:27.750Z,101081.03
2018-06-04T03:53:56.633Z,101076.48
2018-06-04T03:56:25.500Z,101082.64
2018-06-04T03:58:54.450Z,101084.66
2018-06-04T04:01:23.324Z,101078.91
2018-06-04T04:03:52.205Z,101080.00
2018-06-04T04:06:21.049Z,101077.58
2018-06-04T04:08:49.999Z,101076.73
2018-06-04T04:11:19.022Z,101081.32
2018-06-04T04:13:47.925Z,101075.30
2018-06-04T04:16:16.774Z,101076.27
2018-06-04T04:18:45.704Z,101075.67
2018-06-04T04:21:14.580Z,101076.52
2018-06-04T04:23:43.505Z,101068.96
2018-06-04T04:26:12.395Z,101068.01
2018-06-04T04:28:46.504Z,101069.66
2018-06-04T04:31:15.429Z,101071.55
2018-06-04T04:33:44.326Z,101070.34
2018-06-04T04:36:13.215Z,101071.02
2018-06-04T04:38:42.111Z,101069.80
2018-06-04T04:41:10.994Z,101073.55
2018-06-04T04:43:39.854Z,101073.29
2018-06-04T04:46:08.759Z,101076.95
2018-06-04T04:48:37.636Z,101069.05
2018-06-04T04:51:06.626Z,101069.53
2018-06-04T04:53:35.573Z,101066.30
2018-06-04T04:56:04.459Z,101071.11
2018-06-04T04:58:33.335Z,101071.47
2018-06-04T05:01:02.241Z,101073.04
2018-06-04T05:03:31.134Z,101075.94
2018-06-04T05:06:00.029Z,101075.70
2018-06-04T05:08:28.984Z,101073.27
2018-06-04T05:10:57.891Z,101063.55
2018-06-04T05:13:27.968Z,101067.87
2018-06-04T05:15:56.832Z,101062.22
2018-06-04T05:18:27.259Z,101061.97
2018-06-04T05:20:56.700Z,101062.86
2018-06-04T05:23:26.387Z,101066.19
2018-06-04T05:25:55.282Z,101068.48
2018-06-04T05:28:24.217Z,101063.09
2018-06-04T05:30:53.468Z,101069.19
2018-06-04T05:33:22.934Z,101061.13
2018-06-04T05:35:51.802Z,101060.11
2018-06-04T05:38:20.780Z,101059.49
2018-06-04T05:40:49.662Z,101061.66
2018-06-04T05:43:18.520Z,101062.86
2018-06-04T05:45:47.344Z,101062.64
2018-06-04T05:48:16.202Z,101054.73
2018-06-04T05:50:45.117Z,101061.79
2018-06-04T05:53:14.018Z,101059.73
2018-06-04T05:55:42.930Z,101054.81
2018-06-04T05:58:12.869Z,101056.50
2018-06-04T06:00:41.789Z,101057.83
2018-06-04T06:03:10.811Z,101056.40
2018-06-04T06:05:39.694Z,101048.23
2018-06-04T06:08:08.567Z,101049.31
2018-06-04T06:10:37.561Z,101047.51
2018-06-04T06:13:06.473Z,101041.27
2018-06-04T06:15:35.365Z,101044.30
2018-06-04T06:18:04.300Z,101043.93
2018-06-04T06:20:33.214Z,101043.09
2018-06-04T06:23:02.124Z,101041.74
2018-06-04T06:25:31.024Z,101034.53
2018-06-04T06:28:03.627Z,101037.91
2018-06-04T06:30:32.590Z,101036.48
2018-06-04T06:33:01.559Z,101030.47
2018-06-04T06:35:30.866Z,101029.99
2018-06-04T06:37:59.774Z,101030.72
2018-06-04T06:40:30.184Z,101027.98
2018-06-04T06:42:59.137Z,101024.95
2018-06-04T06:45:28.026Z,101026.52
2018-06-04T06:47:56.927Z,101022.69
2018-06-04T06:50:26.885Z,101026.16
2018-06-04T06:52:55.789Z,101025.69
2018-06-04T06:55:24.749Z,101031.33
2018-06-04T06:57:53.714Z,101030.00
2018-06-04T07:00:22.623Z,101038.53
2018-06-04T07:02:51.604Z,101035.29
2018-06-04T07:05:20.560Z,101038.18
2018-06-04T07:07:49.412Z,101034.20
2018-06-04T07:10:18.330Z,101032.20
2018-06-04T07:12:47.200Z,101037.48
2018-06-04T07:15:16.104Z,101034.09
2018-06-04T07:17:44.949Z,101037.59
2018-06-04T07:20:13.815Z,101033.74
2018-06-04T07:22:42.673Z,101044.20
2018-06-04T07:25:11.632Z,101042.27
2018-06-04T07:27:40.594Z,101039.51
2018-06-04T07:30:09.449Z,101042.50
2018-06-04T07:32:38.339Z,101047.56
2018-06-04T07:35:07.311Z,101046.11
2018-06-04T07:37:36.171Z,101044.80
2018-06-04T07:40:05.676Z,101046.69
2018-06-04T07:42:34.548Z,101047.20
2018-06-04T07:45:03.494Z,101045.73
2018-06-04T07:47:33.302Z,101047.53
2018-06-04T07:50:02.736Z,101052.84
2018-06-04T07:52:31.556Z,101052.14
2018-06-04T07:55:00.423Z,101053.67
2018-06-04T07:57:29.264Z,101048.75
2018-06-04T07:59:58.189Z,101056.81
2018-06-04T08:02:27.097Z,101054.33
2018-06-04T08:04:55.987Z,101050.46
2018-06-04T08:07:24.925Z,101049.59
2018-06-04T08:09:53.819Z,101045.61
2018-06-04T08:12:22.653Z,101048.74
2018-06-04T08:14:51.587Z,101054.16
2018-06-04T08:17:20.456Z,101048.50
2018-06-04T08:19:49.397Z,101047.45
2018-06-04T08:22:18.913Z,101047.58
2018-06-04T08:24:47.830Z,101059.27
2018-06-04T08:27:16.678Z,101056.34
2018-06-04T08:29:45.538Z,101057.09
2018-06-04T08:32:14.412Z,101055.73
2018-06-04T08:34:43.253Z,101061.02
2018-06-04T08:37:12.137Z,101062.81
2018-06-04T08:39:40.999Z,101052.73
2018-06-04T08:42:09.857Z,101055.59
2018-06-04T08:44:38.750Z,101058.58
2018-06-04T08:47:07.652Z,101057.76
2018-06-04T08:49:36.540Z,101060.03
2018-06-04T08:52:05.465Z,101057.28
2018-06-04T08:54:34.340Z,101057.30
2018-06-04T08:57:03.232Z,101053.92
2018-06-04T08:59:32.108Z,101044.31
2018-06-04T09:02:01.003Z,101046.84
2018-06-04T09:04:29.860Z,101052.38
2018-06-04T09:06:58.677Z,101041.08
2018-06-04T09:09:27.534Z,101043.61
2018-06-04T09:11:56.398Z,101043.02
2018-06-04T09:14:25.396Z,101047.96
2018-06-04T09:16:54.286Z,101045.16
2018-06-04T09:19:23.129Z,101046.84
2018-06-04T09:21:51.970Z,101051.16
2018-06-04T09:24:20.832Z,101039.14
2018-06-04T09:26:49.692Z,101044.91
2018-06-04T09:29:18.568Z,101045.87
2018-06-04T09:31:47.402Z,101048.17
2018-06-04T09:34:16.290Z,101048.17
2018-06-04T09:36:45.133Z,101043.48
2018-06-04T09:39:14.014Z,101044.72
2018-06-04T09:41:42.880Z,101041.80
2018-06-04T09:44:11.778Z,101040.96
2018-06-04T09:46:40.650Z,101041.80
2018-06-04T09:49:09.545Z,101038.41
2018-06-04T09:51:38.430Z,101029.22
2018-06-04T09:54:07.324Z,101033.41
2018-06-04T09:56:36.168Z,101036.06
2018-06-04T09:59:11.101Z,101029.69
2018-06-04T10:01:39.923Z,101032.09
2018-06-04T10:04:08.768Z,101038.35
2018-06-04T10:06:37.597Z,101036.66
2018-06-04T10:09:08.483Z,101029.73
2018-06-04T10:11:37.336Z,101025.81
2018-06-04T10:14:06.446Z,101029.75
2018-06-04T10:16:35.401Z,101026.73
2018-06-04T10:19:04.254Z,101022.77
2018-06-04T10:21:33.221Z,101019.87
2018-06-04T10:24:02.106Z,101020.72
2018-06-04T10:26:30.968Z,101027.45
2018-06-04T10:28:59.883Z,101030.58
2018-06-04T10:31:28.707Z,101031.25
2018-06-04T10:33:57.572Z,101024.56
2018-06-04T10:36:26.442Z,101027.45
2018-06-04T10:38:55.315Z,101030.45
2018-06-04T10:41:24.196Z,101023.31
2018-06-04T10:43:53.126Z,101023.80
2018-06-04T10:46:21.963Z,101021.39
2018-06-04T10:48:50.861Z,101016.82
2018-06-04T10:51:19.704Z,101011.41
2018-06-04T10:53:48.540Z,101002.98
2018-06-04T10:56:17.421Z,101006.77
2018-06-04T10:58:46.268Z,101007.95
2018-06-04T11:01:15.123Z,101001.34
2018-06-04T11:03:43.957Z,101007.86
2018-06-04T11:06:12.821Z,101001.36
2018-06-04T11:08:41.770Z,101006.87
2018-06-04T11:11:10.665Z,101005.37
2018-06-04T11:13:39.570Z,100998.58
2018-06-04T11:16:08.415Z,101001.34
2018-06-04T11:18:40.134Z,100997.88
2018-06-04T11:21:09.021Z,100999.67
2018-06-04T11:23:37.873Z,100994.55
2018-06-04T11:26:06.756Z,100990.81
2018-06-04T11:28:35.607Z,100991.38
2018-06-04T11:31:04.441Z,100988.05
2018-06-04T11:33:33.376Z,100985.29
2018-06-04T11:36:02.207Z,100990.42
2018-06-04T11:38:31.127Z,100985.05
2018-06-04T11:41:00.008Z,100992.63
2018-06-04T11:43:28.846Z,100990.22
2018-06-04T11:45:57.729Z,100990.90
2018-06-04T11:48:26.601Z,100995.58
2018-06-04T11:50:55.490Z,100988.92
2018-06-04T11:53:24.390Z,100985.95
2018-06-04T11:55:53.219Z,100989.44
2018-06-04T11:58:22.071Z,100990.39
2018-06-04T12:00:50.945Z,100989.20
2018-06-04T12:03:19.766Z,100983.59
2018-06-04T12:05:48.666Z,100986.87
2018-06-04T12:08:17.530Z,100983.38
2018-06-04T12:10:46.363Z,100984.42
2018-06-04T12:13:15.229Z,100979.31
2018-06-04T12:15:44.138Z,100972.56
2018-06-04T12:18:14.153Z,100981.30
2018-06-04T12:20:43.014Z,100978.66
2018-06-04T12:23:12.015Z,100978.24
2018-06-04T12:25:40.853Z,100979.20
2018-06-04T12:28:10.892Z,100975.44
2018-06-04T12:30:39.728Z,100976.15
2018-06-04T12:33:08.645Z,100979.30
2018-06-04T12:35:37.507Z,100974.75
2018-06-04T12:38:06.398Z,100973.64
2018-06-04T12:40:35.254Z,100966.88
2018-06-04T12:43:04.090Z,100966.55
2018-06-04T12:45:32.973Z,100972.17
2018-06-04T12:48:01.844Z,100970.31
2018-06-04T12:50:30.719Z,100976.05
2018-06-04T12:52:59.598Z,100979.55
2018-06-04T12:55:28.548Z,100975.16
2018-06-04T12:57:57.447Z,100975.22
2018-06-04T13:00:26.363Z,100976.37
2018-06-04T13:02:55.202Z,100974.09
2018-06-04T13:05:24.049Z,100980.11
2018-06-04T13:07:52.904Z,100970.13
2018-06-04T13:10:21.806Z,100972.59
2018-06-04T13:12:51.953Z,100967.56
2018-06-04T13:15:20.847Z,100959.92
2018-06-04T13:17:49.702Z,100964.15
2018-06-04T13:20:18.613Z,100959.80
2018-06-04T13:22:47.493Z,100961.61
2018-06-04T13:25:16.360Z,100952.50
2018-06-04T13:27:45.265Z,100947.34
2018-06-04T13:30:14.264Z,100951.06
2018-06-04T13:32:43.136Z,100942.61
2018-06-04T13:35:11.994Z,100945.61
2018-06-04T13:37:40.897Z,100943.23
2018-06-04T13:40:09.753Z,100937.48
2018-06-04T13:42:38.611Z,100929.51
2018-06-04T13:45:07.488Z,100942.20
2018-06-04T13:47:36.321Z,100927.09
2018-06-04T13:50:05.214Z,100940.98
2018-06-04T13:52:34.096Z,100941.04
2018-06-04T13:55:02.964Z,100947.02
2018-06-04T13:57:31.796Z,100938.94
2018-06-04T14:00:00.740Z,100935.74
2018-06-04T14:02:29.538Z,100930.48
2018-06-04T14:04:58.432Z,100927.95
2018-06-04T14:07:27.482Z,100928.55
2018-06-04T14:09:56.396Z,100929.86
2018-06-04T14:12:25.241Z,100929.47
2018-06-04T14:14:54.093Z,100922.08
2018-06-04T14:17:22.953Z,100923.09
2018-06-04T14:19:52.081Z,100923.36
2018-06-04T14:22:20.964Z,100927.82
2018-06-04T14:24:49.839Z,100918.69
2018-06-04T14:27:19.267Z,100913.71
2018-06-04T14:29:48.142Z,100921.05
2018-06-04T14:32:17.001Z,100913.48
2018-06-04T14:34:45.837Z,100918.03
2018-06-04T14:37:14.716Z,100915.33
2018-06-04T14:39:43.573Z,100914.00
2018-06-04T14:42:12.512Z,100909.06
2018-06-04T14:44:41.419Z,100910.35
2018-06-04T14:47:10.299Z,100906.41
2018-06-04T14:49:39.300Z,100910.94
2018-06-04T14:52:08.283Z,100898.42
2018-06-04T14:54:37.130Z,100899.66
2018-06-04T14:57:06.119Z,100899.58
2018-06-04T14:59:34.993Z,100896.33
2018-06-04T15:02:03.915Z,100890.59
2018-06-04T15:04:32.810Z,100892.62
2018-06-04T15:07:01.796Z,100890.49
2018-06-04T15:09:30.722Z,100890.81
2018-06-04T15:11:59.688Z,100889.92
2018-06-04T15:14:28.535Z,100890.17
2018-06-04T15:16:58.007Z,100885.66
2018-06-04T15:19:26.901Z,100888.09
2018-06-04T15:21:56.210Z,100884.13
2018-06-04T15:24:25.076Z,100879.59
2018-06-04T15:26:53.929Z,100880.61
2018-06-04T15:29:22.883Z,100876.09
2018-06-04T15:31:51.773Z,100880.43
2018-06-04T15:34:20.647Z,100875.39
2018-06-04T15:36:49.639Z,100873.98
2018-06-04T15:39:18.526Z,100875.23
2018-06-04T15:41:47.562Z,100874.23
2018-06-04T15:44:16.597Z,100872.52
2018-06-04T15:46:45.580Z,100870.56
2018-06-04T15:49:14.464Z,100865.94
2018-06-04T15:51:43.318Z,100873.48
2018-06-04T15:54:12.210Z,100873.66
2018-06-04T15:56:41.093Z,100867.78
2018-06-04T15:59:11.894Z,100874.90
2018-06-04T16:01:40.745Z,100868.22
2018-06-04T16:04:09.626Z,100864.73
2018-06-04T16:06:38.547Z,100869.68
2018-06-04T16:09:08.339Z,100858.02
2018-06-04T16:11:37.186Z,100861.34
2018-06-04T16:14:06.059Z,100858.06
2018-06-04T16:16:35.010Z,100861.55
2018-06-04T16:19:03.992Z,100853.25
2018-06-04T16:21:33.036Z,100856.42
2018-06-04T16:24:02.022Z,100858.50
2018-06-04T16:26:31.003Z,100853.11
2018-06-04T16:28:59.850Z,100858.34
2018-06-04T16:31:28.796Z,100857.31
2018-06-04T16:33:57.671Z,100852.62
2018-06-04T16:36:26.553Z,100853.87
2018-06-04T16:38:55.441Z,100854.39
2018-06-04T16:41:24.561Z,100854.91
2018-06-04T16:43:53.453Z,100850.01
2018-06-04T16:46:22.379Z,100853.48
2018-06-04T16:48:51.389Z,100851.36
2018-06-04T16:51:20.340Z,100848.09
2018-06-04T16:53:49.673Z,100845.00
2018-06-04T16:56:18.604Z,100844.25
2018-06-04T16:58:47.514Z,100837.51
2018-06-04T17:01:16.556Z,100836.31
2018-06-04T17:03:50.343Z,100836.70
2018-06-04T17:06:27.089Z,100835.22
2018-06-04T17:09:06.617Z,100834.16
2018-06-04T17:11:35.880Z,100823.30
2018-06-04T17:14:04.878Z,100828.53
2018-06-04T17:16:33.853Z,100824.79
2018-06-04T17:19:02.697Z,100823.33
2018-06-04T17:21:31.601Z,100821.04
2018-06-04T17:24:00.517Z,100830.89
2018-06-04T17:26:29.724Z,100822.56
2018-06-04T17:28:58.638Z,100827.50
2018-06-04T17:31:27.533Z,100819.66
2018-06-04T17:33:56.573Z,100812.52
2018-06-04T17:36:26.153Z,100807.31
2018-06-04T17:38:55.079Z,100816.16
2018-06-04T17:41:24.244Z,100814.12
2018-06-04T17:43:53.170Z,100815.90
2018-06-04T17:46:22.069Z,100813.51
2018-06-04T17:48:51.016Z,100815.03
2018-06-04T17:51:19.959Z,100820.71
2018-06-04T17:53:48.848Z,100815.38
2018-06-04T17:56:17.837Z,100811.30
2018-06-04T17:58:46.722Z,100813.48
2018-06-04T18:01:15.717Z,100810.81
2018-06-04T18:03:46.918Z,100812.27
2018-06-04T18:06:15.961Z,100813.45
2018-06-04T18:08:44.875Z,100815.80
2018-06-04T18:11:13.802Z,100815.31
2018-06-04T18:13:42.731Z,100808.76
2018-06-04T18:16:12.235Z,100802.63
2018-06-04T18:18:41.170Z,100809.03
2018-06-04T18:21:11.425Z,100808.55
2018-06-04T18:23:40.559Z,100806.55
2018-06-04T18:26:09.457Z,100806.19
2018-06-04T18:28:38.500Z,100805.84
2018-06-04T18:31:07.965Z,100809.33
2018-06-04T18:33:36.833Z,100816.23
2018-06-04T18:36:05.684Z,100811.86
2018-06-04T18:38:34.573Z,100807.48
2018-06-04T18:41:03.498Z,100812.77
2018-06-04T18:43:32.368Z,100811.25
2018-06-04T18:46:01.269Z,100810.30
2018-06-04T18:48:30.179Z,100814.93
2018-06-04T18:50:59.120Z,100815.66
2018-06-04T18:53:28.040Z,100812.16
2018-06-04T18:55:56.962Z,100813.00
2018-06-04T18:58:25.837Z,100815.89
2018-06-04T19:00:55.721Z,100814.38
2018-06-04T19:03:24.689Z,100817.34
2018-06-04T19:05:53.590Z,100810.41
2018-06-04T19:08:22.601Z,100812.58
2018-06-04T19:10:51.471Z,100812.58
2018-06-04T19:13:20.487Z,100811.86
2018-06-04T19:15:49.391Z,100814.62
2018-06-04T19:18:18.285Z,100814.86
2018-06-04T19:20:47.248Z,100811.86
2018-06-04T19:23:17.143Z,100809.97
2018-06-04T19:25:46.305Z,100807.22
2018-06-04T19:28:15.228Z,100813.70
2018-06-04T19:30:44.197Z,100806.50
2018-06-04T19:33:13.089Z,100810.45
2018-06-04T19:35:42.017Z,100810.37
2018-06-04T20:33:13.160Z,100805.78
2018-06-04T20:35:42.118Z,100816.50
2018-06-04T20:38:12.221Z,100813.63
2018-06-04T20:40:41.065Z,100820.59
2018-06-04T20:43:09.962Z,100812.80
2018-06-04T20:45:38.846Z,100818.08
2018-06-04T20:48:08.954Z,100821.55
2018-06-04T20:50:37.911Z,100820.23
2018-06-04T20:53:07.009Z,100825.16
2018-06-04T20:55:35.932Z,100828.64
2018-06-04T20:58:04.824Z,100831.61
2018-06-04T21:00:33.716Z,100823.00
2018-06-04T21:03:02.583Z,100825.64
2018-06-04T21:05:31.517Z,100822.88
2018-06-04T21:08:00.460Z,100820.36
2018-06-04T21:10:29.341Z,100822.01
2018-06-04T21:12:58.217Z,100824.07
2018-06-04T21:15:27.096Z,100820.34
2018-06-04T21:17:55.949Z,100818.51
2018-06-04T21:20:24.821Z,100824.03
2018-06-04T21:22:53.684Z,100830.32
2018-06-04T21:25:22.541Z,100829.43
2018-06-04T21:27:51.410Z,100824.31
2018-06-04T21:30:20.289Z,100824.20
2018-06-04T21:32:49.146Z,100822.61
2018-06-04T21:35:17.990Z,100825.02
2018-06-04T21:37:46.909Z,100822.48
2018-06-04T21:40:15.817Z,100822.61
2018-06-04T21:42:44.736Z,100823.56
2018-06-04T21:45:13.613Z,100828.26
2018-06-04T21:47:42.499Z,100825.73
2018-06-04T21:50:11.432Z,100833.32
2018-06-04T21:52:40.324Z,100833.41
2018-06-04T21:55:09.235Z,100835.95
2018-06-04T21:57:38.208Z,100837.64
2018-06-04T22:00:09.846Z,100837.14
2018-06-04T22:02:39.157Z,100839.15
2018-06-04T22:05:08.093Z,100840.52
2018-06-04T22:07:36.974Z,100841.11
2018-06-04T22:10:06.577Z,100844.23
2018-06-04T22:12:35.540Z,100842.68
2018-06-04T22:15:04.562Z,100841.12
2018-06-04T22:17:33.450Z,100849.04
2018-06-04T22:20:02.395Z,100841.95
2018-06-04T22:22:31.408Z,100846.03
2018-06-04T22:25:00.315Z,100855.88
2018-06-04T22:27:29.198Z,100851.75
2018-06-04T22:29:58.131Z,100854.37
2018-06-04T22:32:27.051Z,100855.97
2018-06-04T22:34:55.931Z,100856.43
2018-06-04T22:37:24.788Z,100857.50
2018-06-04T22:39:53.659Z,100859.65
2018-06-04T22:42:22.552Z,100853.06
2018-06-04T22:44:51.443Z,100852.80
2018-06-04T22:47:20.360Z,100861.92
2018-06-04T22:49:49.226Z,100859.05
2018-06-04T22:52:18.118Z,100853.05
2018-06-04T22:54:46.993Z,100859.77
2018-06-04T22:57:15.905Z,100858.33
2018-06-04T22:59:44.786Z,100853.27
2018-06-04T23:02:13.668Z,100862.52
2018-06-04T23:04:42.571Z,100857.08
2018-06-04T23:07:11.446Z,100854.92
2018-06-04T23:09:40.291Z,100858.13
2018-06-04T23:12:09.151Z,100861.95
2018-06-04T23:14:38.013Z,100865.15
2018-06-04T23:17:06.837Z,100858.89
2018-06-04T23:19:35.718Z,100855.77
2018-06-04T23:22:05.250Z,100863.91
2018-06-04T23:24:34.952Z,100862.08
2018-06-04T23:27:03.812Z,100860.87
2018-06-04T23:29:32.682Z,100861.61
2018-06-04T23:32:01.550Z,100865.70
2018-06-04T23:34:30.503Z,100857.98
2018-06-04T23:36:59.380Z,100865.36
2018-06-04T23:39:28.228Z,100866.10
2018-06-04T23:41:57.139Z,100869.81
2018-06-04T23:44:26.024Z,100864.06
2018-06-04T23:46:54.913Z,100865.85
2018-06-04T23:49:26.674Z,100874.52
2018-06-04T23:51:55.865Z,100866.73
2018-06-04T23:54:24.738Z,100873.00
2018-06-04T23:56:53.696Z,100872.10
2018-06-04T23:59:22.555Z,100878.00
